Terminal Aerodrome Forecast
Issued by NWS Salt Lake City, UT

Home | Current Version | Previous Version | Text Only | Print | Product List | Glossary On
Versions: 1 2 3 4 5 6 7 8 9 10 11 12 13 14 15 16 17 18 19 20 21 22 23 24 25
000
FTUS45 KSLC 250007 AAA
TAFSLC
TAF AMD
KSLC 250007Z 2500/2606 02006KT P6SM -SHRA VCTS SCT025 BKN040CB
     FM250100 35008KT P6SM VCSH SCT050 BKN100
      TEMPO 2501/2505 -SHRA BKN040
     FM250800 32009KT P6SM -SHRA FEW025 BKN040
     FM252000 33008KT P6SM VCSH BKN050
     FM260300 15006KT P6SM SCT050 SCT100=

USA.gov is the U.S. government's official web portal to all federal, state and local government web resources and services.